createdAt,value
2023-03-08T00:01:24.896Z,35.57
2023-03-08T00:03:53.574Z,25.03
2023-03-08T00:06:20.207Z,30.77
2023-03-08T00:08:48.740Z,26.17
2023-03-08T00:11:15.860Z,29.03
2023-03-08T00:13:42.447Z,30.63
2023-03-08T00:16:11.498Z,23.03
2023-03-08T00:18:38.281Z,26.77
2023-03-08T00:21:14.502Z,27.87
2023-03-08T00:23:41.912Z,25.53
2023-03-08T00:26:09.247Z,20.20
2023-03-08T00:28:36.087Z,21.53
2023-03-08T00:31:08.075Z,28.03
2023-03-08T00:33:35.635Z,28.70
2023-03-08T00:36:05.305Z,21.33
2023-03-08T00:38:34.000Z,28.70
2023-03-08T00:41:00.725Z,22.40
2023-03-08T00:43:28.229Z,23.00
2023-03-08T00:45:54.777Z,29.93
2023-03-08T00:48:21.717Z,29.60
2023-03-08T00:50:48.889Z,32.53
2023-03-08T00:53:15.530Z,25.07
2023-03-08T00:55:53.226Z,22.67
2023-03-08T00:58:20.696Z,22.07
2023-03-08T01:00:47.568Z,25.87
2023-03-08T01:03:14.466Z,27.03
2023-03-08T01:05:42.336Z,28.17
2023-03-08T01:08:09.451Z,21.97
2023-03-08T01:10:40.543Z,26.00
2023-03-08T01:13:08.237Z,20.67
2023-03-08T01:15:38.881Z,21.33
2023-03-08T01:18:06.560Z,27.57
2023-03-08T01:20:33.711Z,28.53
2023-03-08T01:23:00.442Z,24.30
2023-03-08T01:25:27.160Z,24.70
2023-03-08T01:27:53.666Z,24.83
2023-03-08T01:30:20.259Z,29.03
2023-03-08T01:32:46.799Z,26.37
2023-03-08T01:35:13.509Z,22.17
2023-03-08T01:37:39.960Z,32.30
2023-03-08T01:40:07.624Z,31.60
2023-03-08T01:42:34.146Z,30.47
2023-03-08T01:45:06.549Z,30.20
2023-03-08T01:47:36.141Z,27.23
2023-03-08T01:50:11.783Z,30.80
2023-03-08T01:52:47.108Z,29.73
2023-03-08T01:55:14.359Z,26.90
2023-03-08T01:57:45.592Z,33.67
2023-03-08T02:00:18.365Z,25.33
2023-03-08T02:02:50.096Z,45.07
2023-03-08T02:05:17.102Z,28.53
2023-03-08T02:07:43.770Z,35.07
2023-03-08T02:10:11.715Z,27.13
2023-03-08T02:12:39.034Z,35.60
2023-03-08T02:15:07.239Z,32.03
2023-03-08T02:17:37.953Z,26.07
2023-03-08T02:20:13.910Z,29.17
2023-03-08T02:22:42.181Z,36.10
2023-03-08T02:25:22.893Z,31.00
2023-03-08T02:27:50.622Z,25.90
2023-03-08T02:30:23.452Z,32.53
2023-03-08T02:32:49.938Z,29.57
2023-03-08T02:35:16.640Z,33.40
2023-03-08T02:37:43.351Z,31.03
2023-03-08T02:40:11.636Z,33.60
2023-03-08T02:42:38.360Z,35.73
2023-03-08T02:45:05.463Z,27.10
2023-03-08T02:47:31.940Z,27.33
2023-03-08T02:49:58.517Z,25.77
2023-03-08T02:52:25.109Z,28.30
2023-03-08T02:54:51.597Z,29.10
2023-03-08T02:57:18.078Z,27.83
2023-03-08T02:59:44.599Z,35.40
2023-03-08T03:02:11.131Z,35.47
2023-03-08T03:04:37.907Z,32.53
2023-03-08T03:07:04.629Z,27.50
2023-03-08T03:09:31.166Z,32.07
2023-03-08T03:11:57.770Z,29.70
2023-03-08T03:14:27.594Z,30.83
2023-03-08T03:16:54.242Z,23.37
2023-03-08T03:19:21.220Z,30.33
2023-03-08T03:21:48.663Z,35.47
2023-03-08T03:24:15.388Z,38.07
2023-03-08T03:26:41.951Z,30.57
2023-03-08T03:29:08.789Z,28.57
2023-03-08T03:31:35.375Z,30.07
2023-03-08T03:34:02.032Z,34.23
2023-03-08T03:36:28.608Z,26.40
2023-03-08T03:38:55.676Z,39.13
2023-03-08T03:41:23.439Z,34.90
2023-03-08T03:43:50.565Z,29.73
2023-03-08T03:46:19.727Z,34.30
2023-03-08T03:48:46.816Z,35.20
2023-03-08T03:51:17.102Z,30.80
2023-03-08T03:53:43.953Z,33.23
2023-03-08T03:56:16.333Z,31.07
2023-03-08T03:58:42.962Z,27.70
2023-03-08T04:01:24.628Z,30.90
2023-03-08T04:03:52.313Z,30.33
2023-03-08T04:06:20.877Z,29.90
2023-03-08T04:08:48.382Z,31.43
2023-03-08T04:11:18.257Z,31.67
2023-03-08T04:13:45.261Z,33.13
2023-03-08T04:16:17.474Z,26.43
2023-03-08T04:18:44.128Z,26.30
2023-03-08T04:21:11.487Z,30.60
2023-03-08T04:23:38.319Z,27.30
2023-03-08T04:26:05.745Z,30.60
2023-03-08T04:28:33.949Z,30.67
2023-03-08T04:31:01.322Z,27.57
2023-03-08T04:33:28.349Z,24.83
2023-03-08T04:35:54.924Z,28.87
2023-03-08T04:38:21.603Z,32.00
2023-03-08T04:41:12.153Z,31.53
2023-03-08T04:43:46.280Z,28.23
2023-03-08T04:46:13.387Z,27.60
2023-03-08T04:48:40.146Z,29.93
2023-03-08T04:51:07.838Z,32.03
2023-03-08T04:53:35.041Z,33.23
2023-03-08T04:56:02.063Z,30.53
2023-03-08T04:58:29.462Z,39.97
2023-03-08T05:00:56.366Z,32.37
2023-03-08T05:03:23.326Z,31.50
2023-03-08T05:05:55.263Z,41.40
2023-03-08T05:08:22.457Z,32.00
2023-03-08T05:11:00.919Z,31.27
2023-03-08T05:13:29.618Z,31.30
2023-03-08T05:15:56.365Z,26.03
2023-03-08T05:18:22.981Z,30.23
2023-03-08T05:20:57.305Z,28.90
2023-03-08T05:23:24.737Z,33.50
2023-03-08T05:25:53.016Z,29.63
2023-03-08T05:28:19.879Z,32.77
2023-03-08T05:30:46.725Z,32.20
2023-03-08T05:33:13.792Z,36.03
2023-03-08T05:35:40.437Z,28.00
2023-03-08T05:38:07.139Z,34.27
2023-03-08T05:40:33.709Z,30.30
2023-03-08T05:43:00.200Z,32.93
2023-03-08T05:45:27.098Z,29.60
2023-03-08T05:47:53.781Z,28.30
2023-03-08T05:50:20.337Z,35.23
2023-03-08T05:52:47.559Z,33.67
2023-03-08T05:55:14.147Z,29.13
2023-03-08T05:57:40.881Z,27.20
2023-03-08T06:00:08.279Z,35.00
2023-03-08T06:02:34.794Z,33.43
2023-03-08T06:05:01.353Z,37.67
2023-03-08T06:07:27.942Z,33.03
2023-03-08T06:09:55.845Z,36.20
2023-03-08T06:12:22.496Z,35.83
2023-03-08T06:14:49.020Z,28.90
2023-03-08T06:17:15.566Z,31.00
2023-03-08T06:19:42.096Z,32.07
2023-03-08T06:22:08.676Z,33.90
2023-03-08T06:24:35.492Z,33.63
2023-03-08T06:27:01.937Z,30.13
2023-03-08T06:29:28.489Z,36.90
2023-03-08T06:31:55.632Z,27.43
2023-03-08T06:34:22.303Z,28.57
2023-03-08T06:36:48.818Z,31.07
2023-03-08T06:39:15.377Z,30.53
2023-03-08T06:41:41.921Z,30.13
2023-03-08T06:44:08.398Z,28.50
2023-03-08T06:46:34.918Z,30.23
2023-03-08T06:49:01.690Z,35.70
2023-03-08T06:51:28.234Z,29.17
2023-03-08T06:53:55.072Z,30.87
2023-03-08T06:56:21.611Z,29.57
2023-03-08T06:58:48.245Z,25.57
2023-03-08T07:01:14.875Z,29.03
2023-03-08T07:03:41.891Z,40.67
2023-03-08T07:06:10.014Z,33.27
2023-03-08T07:08:37.820Z,34.43
2023-03-08T07:11:04.860Z,29.23
2023-03-08T07:13:31.460Z,31.00
2023-03-08T07:15:58.120Z,29.60
2023-03-08T07:18:25.352Z,27.50
2023-03-08T07:20:53.316Z,34.57
2023-03-08T07:23:19.894Z,30.07
2023-03-08T07:25:46.444Z,33.07
2023-03-08T07:28:13.124Z,32.47
2023-03-08T07:30:39.960Z,29.63
2023-03-08T07:33:06.585Z,31.43
2023-03-08T07:35:33.138Z,30.13
2023-03-08T07:37:59.717Z,29.27
2023-03-08T07:40:26.297Z,26.47
2023-03-08T07:42:52.891Z,48.37
2023-03-08T07:45:19.628Z,25.80
2023-03-08T07:47:46.163Z,27.63
2023-03-08T07:50:12.933Z,36.50
2023-03-08T07:52:39.481Z,32.00
2023-03-08T07:55:06.805Z,29.43
2023-03-08T07:57:33.298Z,26.20
2023-03-08T07:59:59.890Z,28.50
2023-03-08T08:02:26.399Z,27.60
2023-03-08T08:04:53.297Z,25.97
2023-03-08T08:07:19.899Z,25.03
2023-03-08T08:09:46.401Z,31.07
2023-03-08T08:12:13.093Z,25.70
2023-03-08T08:14:39.707Z,28.93
2023-03-08T08:17:06.273Z,27.80
2023-03-08T08:19:32.921Z,32.13
2023-03-08T08:22:00.296Z,32.33
2023-03-08T08:24:27.374Z,26.20
2023-03-08T08:26:54.207Z,27.50
2023-03-08T08:29:20.823Z,26.27
2023-03-08T08:31:47.635Z,25.40
2023-03-08T08:34:14.313Z,26.50
2023-03-08T08:36:41.122Z,29.67
2023-03-08T08:39:07.731Z,23.93
2023-03-08T08:41:34.246Z,29.67
2023-03-08T08:44:00.853Z,29.37
2023-03-08T08:46:28.209Z,27.73
2023-03-08T08:48:56.162Z,33.97
2023-03-08T08:51:22.730Z,24.77
2023-03-08T08:53:49.369Z,32.40
2023-03-08T08:56:27.308Z,23.93
2023-03-08T08:58:56.101Z,28.30
2023-03-08T09:01:24.864Z,27.87
2023-03-08T09:03:51.785Z,25.33
2023-03-08T09:06:22.846Z,25.07
2023-03-08T09:08:54.921Z,32.00
2023-03-08T09:11:22.213Z,30.83
2023-03-08T09:13:48.840Z,27.47
2023-03-08T09:16:24.165Z,24.60
2023-03-08T09:18:51.354Z,25.03
2023-03-08T09:21:18.160Z,24.23
2023-03-08T09:23:44.690Z,23.47
2023-03-08T09:26:11.764Z,24.10
2023-03-08T09:28:38.374Z,22.23
2023-03-08T09:31:12.985Z,23.30
2023-03-08T09:33:48.402Z,25.83
2023-03-08T09:36:15.776Z,34.93
2023-03-08T09:38:42.922Z,26.93
2023-03-08T09:41:34.396Z,28.50
2023-03-08T09:44:31.816Z,30.13
2023-03-08T09:47:28.927Z,22.67
2023-03-08T09:50:01.925Z,27.20
2023-03-08T09:52:52.257Z,27.33
2023-03-08T09:55:30.804Z,26.20
2023-03-08T09:58:22.524Z,24.90
2023-03-08T10:00:49.368Z,28.93
2023-03-08T10:03:36.811Z,29.10
2023-03-08T10:06:10.555Z,24.50
2023-03-08T10:09:00.347Z,26.70
2023-03-08T10:11:47.273Z,30.07
2023-03-08T10:14:24.612Z,24.70
2023-03-08T10:16:54.416Z,33.17
2023-03-08T10:19:26.116Z,28.77
2023-03-08T10:21:53.542Z,26.50
2023-03-08T10:24:28.178Z,27.83
2023-03-08T10:26:55.286Z,23.30
2023-03-08T10:29:21.877Z,32.90
2023-03-08T10:31:48.685Z,23.13
2023-03-08T10:34:32.117Z,22.80
2023-03-08T10:37:01.440Z,24.93
2023-03-08T10:39:28.413Z,40.27
2023-03-08T10:41:57.537Z,22.10
2023-03-08T10:44:43.596Z,32.73
2023-03-08T10:47:27.565Z,25.97
2023-03-08T10:50:18.153Z,18.73
2023-03-08T10:52:46.440Z,23.30
2023-03-08T10:55:17.493Z,24.60
2023-03-08T10:57:59.716Z,25.30
2023-03-08T11:00:37.836Z,25.37
2023-03-08T11:03:25.040Z,25.73
2023-03-08T11:06:13.673Z,17.37
2023-03-08T11:08:51.597Z,18.00
2023-03-08T11:11:18.186Z,21.93
2023-03-08T11:13:49.633Z,23.63
2023-03-08T11:16:57.084Z,24.17
2023-03-08T11:19:44.669Z,25.53
2023-03-08T11:22:24.625Z,23.93
2023-03-08T11:25:09.430Z,24.60
2023-03-08T11:27:52.853Z,26.40
2023-03-08T11:30:57.128Z,26.53
2023-03-08T11:33:38.719Z,23.83
2023-03-08T11:36:14.401Z,33.57
2023-03-08T11:38:41.452Z,23.50
2023-03-08T11:41:28.813Z,23.07
2023-03-08T11:44:13.384Z,33.93
2023-03-08T11:46:55.181Z,23.80
2023-03-08T11:49:24.434Z,27.10
2023-03-08T11:52:26.954Z,31.43
2023-03-08T11:55:21.481Z,36.70
2023-03-08T11:57:53.290Z,35.13
2023-03-08T12:00:32.408Z,27.70
2023-03-08T12:03:03.546Z,21.80
2023-03-08T12:05:34.570Z,22.63
2023-03-08T12:08:26.278Z,24.23
2023-03-08T12:11:03.234Z,27.17
2023-03-08T12:13:39.670Z,23.00
2023-03-08T12:16:15.003Z,27.80
2023-03-08T12:19:03.428Z,30.00
2023-03-08T12:21:44.579Z,24.33
2023-03-08T12:24:30.075Z,25.27
2023-03-08T12:27:05.997Z,22.93
2023-03-08T12:29:37.728Z,25.60
2023-03-08T12:32:05.277Z,31.80
2023-03-08T12:34:42.526Z,29.13
2023-03-08T12:37:24.179Z,23.10
2023-03-08T12:40:05.870Z,28.70
2023-03-08T12:42:40.462Z,32.17
2023-03-08T12:45:18.972Z,25.60
2023-03-08T12:48:06.826Z,27.13
2023-03-08T12:50:59.670Z,25.20
2023-03-08T12:53:41.929Z,28.97
2023-03-08T12:56:11.489Z,25.43
2023-03-08T12:58:54.881Z,29.27
2023-03-08T13:01:40.572Z,28.20
2023-03-08T13:04:39.660Z,25.53
2023-03-08T13:07:07.383Z,24.40
2023-03-08T13:09:42.797Z,32.93
2023-03-08T13:12:13.598Z,29.30
2023-03-08T13:14:45.834Z,31.43
2023-03-08T13:17:30.671Z,26.30
2023-03-08T13:19:58.663Z,23.33
2023-03-08T13:22:29.811Z,28.10
2023-03-08T13:25:00.164Z,24.33
2023-03-08T13:27:54.357Z,25.87
2023-03-08T13:30:32.984Z,25.17
2023-03-08T13:33:00.235Z,24.20
2023-03-08T13:35:27.068Z,30.10
2023-03-08T13:37:55.758Z,25.20
2023-03-08T13:40:23.392Z,24.13
2023-03-08T13:42:54.019Z,22.03
2023-03-08T13:45:20.654Z,20.37
2023-03-08T13:47:47.979Z,20.00
2023-03-08T13:50:38.267Z,21.07
2023-03-08T13:53:10.072Z,17.60
2023-03-08T13:55:43.159Z,18.97
2023-03-08T13:58:39.842Z,22.60
2023-03-08T14:01:12.604Z,25.60
2023-03-08T14:03:39.887Z,23.27
2023-03-08T14:06:18.883Z,20.13
2023-03-08T14:08:47.288Z,25.83
2023-03-08T14:11:21.507Z,33.20
2023-03-08T14:13:52.063Z,28.17
2023-03-08T14:16:24.764Z,25.20
2023-03-08T14:18:51.725Z,23.60
2023-03-08T14:21:22.393Z,26.73
2023-03-08T14:23:59.132Z,24.80
2023-03-08T14:26:35.058Z,27.90
2023-03-08T14:29:10.580Z,29.97
2023-03-08T14:31:39.226Z,27.87
2023-03-08T14:34:19.176Z,26.17
2023-03-08T14:36:55.401Z,22.50
2023-03-08T14:39:23.688Z,30.23
2023-03-08T14:41:50.535Z,25.37
2023-03-08T14:44:27.403Z,34.40
2023-03-08T14:46:58.781Z,26.03
2023-03-08T14:49:29.250Z,24.13
2023-03-08T14:51:56.082Z,34.30
2023-03-08T14:54:35.056Z,30.93
2023-03-08T14:57:17.394Z,22.83
2023-03-08T14:59:44.020Z,27.37
2023-03-08T15:02:12.791Z,21.00
2023-03-08T15:04:39.944Z,29.33
2023-03-08T15:07:06.657Z,28.17
2023-03-08T15:09:33.746Z,28.30
2023-03-08T15:12:01.586Z,28.00
2023-03-08T15:14:28.955Z,34.97
2023-03-08T15:16:55.502Z,32.53
2023-03-08T15:19:21.957Z,34.73
2023-03-08T15:21:48.611Z,30.20
2023-03-08T15:24:17.592Z,29.70
2023-03-08T15:26:44.957Z,35.73
2023-03-08T15:29:26.806Z,26.37
2023-03-08T15:31:54.215Z,29.50
2023-03-08T15:34:21.429Z,45.97
2023-03-08T15:36:49.294Z,35.40
2023-03-08T15:39:15.985Z,34.40
2023-03-08T15:41:42.655Z,37.20
2023-03-08T15:44:09.961Z,33.33
2023-03-08T15:46:36.622Z,30.20
2023-03-08T15:49:03.663Z,25.17
2023-03-08T15:51:36.162Z,28.60
2023-03-08T15:54:05.069Z,29.40
2023-03-08T15:56:31.851Z,22.70
2023-03-08T15:58:58.409Z,22.83
2023-03-08T16:01:26.743Z,30.03
2023-03-08T16:03:55.222Z,26.13
2023-03-08T16:06:24.071Z,31.07
2023-03-08T16:08:50.581Z,40.10
2023-03-08T16:11:21.189Z,29.80
2023-03-08T16:13:49.272Z,23.03
2023-03-08T16:16:16.157Z,36.43
2023-03-08T16:18:44.810Z,33.43
2023-03-08T16:21:11.926Z,32.17
2023-03-08T16:23:41.504Z,33.30
2023-03-08T16:26:16.791Z,29.00
2023-03-08T16:28:45.292Z,26.07
2023-03-08T16:31:12.909Z,26.40
2023-03-08T16:33:39.847Z,24.30
2023-03-08T16:36:06.729Z,25.70
2023-03-08T16:38:33.278Z,29.07
2023-03-08T16:41:12.171Z,23.20
2023-03-08T16:43:46.297Z,32.07
2023-03-08T16:46:18.882Z,22.10
2023-03-08T16:48:45.737Z,32.63
2023-03-08T16:51:14.544Z,29.10
2023-03-08T16:53:41.135Z,25.27
2023-03-08T16:56:07.646Z,25.27
2023-03-08T16:58:34.224Z,19.40
2023-03-08T17:01:00.812Z,17.87
2023-03-08T17:03:27.387Z,27.87
2023-03-08T17:05:53.938Z,16.93
2023-03-08T17:08:20.559Z,17.60
2023-03-08T17:10:47.071Z,19.27
2023-03-08T17:13:13.755Z,14.20
2023-03-08T17:15:44.663Z,18.67
2023-03-08T17:18:11.502Z,14.67
2023-03-08T17:20:42.050Z,18.50
2023-03-08T17:23:10.211Z,13.80
2023-03-08T17:25:40.038Z,14.73
2023-03-08T17:28:08.487Z,15.17
2023-03-08T17:30:35.623Z,18.70
2023-03-08T17:33:02.378Z,19.53
2023-03-08T17:35:29.031Z,15.33
2023-03-08T17:37:55.624Z,25.43
2023-03-08T17:40:22.288Z,28.00
2023-03-08T17:42:49.003Z,17.03
2023-03-08T17:45:16.916Z,17.60
2023-03-08T17:47:43.888Z,17.90
2023-03-08T17:50:13.126Z,19.40
2023-03-08T17:52:40.751Z,18.97
2023-03-08T17:55:07.727Z,23.67
2023-03-08T17:57:36.133Z,21.10
2023-03-08T18:00:06.956Z,24.63
2023-03-08T18:02:33.625Z,20.03
2023-03-08T18:05:00.202Z,22.60
2023-03-08T18:07:28.203Z,32.10
2023-03-08T18:09:54.987Z,41.97
2023-03-08T18:12:21.516Z,47.43
2023-03-08T18:14:52.405Z,16.00
2023-03-08T18:17:20.027Z,17.77
2023-03-08T18:19:47.124Z,18.37
2023-03-08T18:22:14.163Z,14.33
2023-03-08T18:24:41.642Z,17.77
2023-03-08T18:27:08.242Z,14.30
2023-03-08T18:29:35.742Z,12.80
2023-03-08T18:32:02.804Z,13.30
2023-03-08T18:34:29.778Z,22.00
2023-03-08T18:36:58.584Z,22.13
2023-03-08T18:39:25.378Z,28.27
2023-03-08T18:41:54.031Z,25.83
2023-03-08T18:44:20.594Z,20.97
2023-03-08T18:46:47.195Z,22.40
2023-03-08T18:49:13.970Z,27.43
2023-03-08T18:51:41.711Z,20.80
2023-03-08T18:54:10.909Z,22.50
2023-03-08T18:56:37.494Z,29.00
2023-03-08T18:59:05.691Z,22.97
2023-03-08T19:01:32.833Z,23.97
2023-03-08T19:04:00.582Z,16.90
2023-03-08T19:06:27.697Z,15.40
2023-03-08T19:08:54.384Z,11.60
2023-03-08T19:11:23.632Z,17.50
2023-03-08T19:13:50.483Z,17.30
2023-03-08T19:16:27.185Z,16.40
2023-03-08T19:18:55.841Z,15.93
2023-03-08T19:21:31.207Z,18.13
2023-03-08T19:23:58.381Z,17.70
2023-03-08T19:26:47.614Z,14.80
2023-03-08T19:29:16.700Z,20.90
2023-03-08T19:31:53.196Z,24.80
2023-03-08T19:34:21.853Z,21.47
2023-03-08T19:36:49.237Z,12.83
2023-03-08T19:39:21.524Z,22.70
2023-03-08T19:41:49.345Z,21.93
2023-03-08T19:44:15.948Z,16.27
2023-03-08T19:46:42.581Z,18.90
2023-03-08T19:49:12.711Z,15.40
2023-03-08T19:51:39.257Z,22.40
2023-03-08T19:54:07.087Z,18.27
2023-03-08T19:56:34.527Z,20.97
2023-03-08T19:59:01.427Z,18.47
2023-03-08T20:01:28.044Z,18.57
2023-03-08T20:03:54.918Z,22.67
2023-03-08T20:06:31.839Z,21.50
2023-03-08T20:08:59.533Z,15.60
2023-03-08T20:11:26.117Z,25.70
2023-03-08T20:13:52.679Z,16.87
2023-03-08T20:16:20.042Z,19.47
2023-03-08T20:18:49.546Z,16.40
2023-03-08T20:21:16.728Z,21.90
2023-03-08T20:23:43.314Z,19.63
2023-03-08T20:26:09.884Z,20.47
2023-03-08T20:28:36.607Z,21.03
2023-03-08T20:31:13.048Z,19.50
2023-03-08T20:33:39.725Z,17.10
2023-03-08T20:36:06.628Z,23.67
2023-03-08T20:38:33.585Z,25.63
2023-03-08T20:41:11.913Z,32.27
2023-03-08T20:43:39.183Z,26.33
2023-03-08T20:46:09.353Z,22.47
2023-03-08T20:48:37.303Z,25.07
2023-03-08T20:51:05.115Z,19.70
2023-03-08T20:53:33.042Z,22.23
2023-03-08T20:55:59.585Z,17.53
2023-03-08T20:58:26.504Z,16.97
2023-03-08T21:00:52.982Z,20.57
2023-03-08T21:03:19.595Z,21.40
2023-03-08T21:05:52.999Z,15.23
2023-03-08T21:08:19.968Z,23.90
2023-03-08T21:10:46.457Z,25.27
2023-03-08T21:13:13.915Z,16.40
2023-03-08T21:15:40.475Z,18.30
2023-03-08T21:18:07.384Z,21.73
2023-03-08T21:20:38.024Z,19.87
2023-03-08T21:23:04.670Z,14.30
2023-03-08T21:25:34.995Z,15.17
2023-03-08T21:28:01.541Z,22.20
2023-03-08T21:30:30.529Z,15.37
2023-03-08T21:32:57.123Z,10.13
2023-03-08T21:35:23.845Z,8.80
2023-03-08T21:37:50.431Z,12.83
2023-03-08T21:40:17.118Z,22.70
2023-03-08T21:42:44.097Z,17.73
2023-03-08T21:45:10.896Z,18.80
2023-03-08T21:47:37.470Z,10.53
2023-03-08T21:50:04.277Z,11.60
2023-03-08T21:52:30.807Z,16.63
2023-03-08T21:54:57.293Z,13.50
2023-03-08T21:57:23.913Z,16.57
2023-03-08T21:59:50.403Z,21.37
2023-03-08T22:02:16.972Z,11.50
2023-03-08T22:04:45.535Z,15.40
2023-03-08T22:07:12.308Z,11.83
2023-03-08T22:09:38.979Z,13.63
2023-03-08T22:12:05.733Z,15.93
2023-03-08T22:14:33.359Z,11.87
2023-03-08T22:17:00.678Z,11.40
2023-03-08T22:19:27.337Z,13.67
2023-03-08T22:21:53.875Z,12.07
2023-03-08T22:24:20.522Z,14.60
2023-03-08T22:26:48.030Z,11.33
2023-03-08T22:29:14.824Z,8.73
2023-03-08T22:31:41.615Z,10.40
2023-03-08T22:34:08.268Z,9.77
2023-03-08T22:36:34.988Z,11.30
2023-03-08T22:39:01.580Z,14.17
2023-03-08T22:41:28.591Z,10.03
2023-03-08T22:43:55.363Z,10.23
2023-03-08T22:46:24.729Z,10.60
2023-03-08T22:48:52.549Z,12.33
2023-03-08T22:51:21.043Z,11.50
2023-03-08T22:53:50.386Z,13.87
2023-03-08T22:56:30.311Z,8.70
2023-03-08T22:58:57.676Z,10.30
2023-03-08T23:01:25.046Z,10.90
2023-03-08T23:03:56.807Z,6.40
2023-03-08T23:06:24.957Z,15.97
2023-03-08T23:08:51.863Z,9.13
2023-03-08T23:11:18.470Z,8.70
2023-03-08T23:13:45.026Z,7.20
2023-03-08T23:16:13.846Z,9.30
2023-03-08T23:18:41.136Z,8.53
2023-03-08T23:21:11.284Z,10.90
2023-03-08T23:23:38.191Z,9.00
2023-03-08T23:26:06.381Z,8.90
2023-03-08T23:28:35.484Z,8.60
2023-03-08T23:31:07.552Z,7.27
2023-03-08T23:33:34.005Z,11.90
2023-03-08T23:36:00.658Z,6.80
2023-03-08T23:38:27.357Z,8.10
2023-03-08T23:40:53.908Z,8.63
2023-03-08T23:43:20.488Z,8.93
2023-03-08T23:45:47.071Z,9.63
2023-03-08T23:48:13.622Z,7.87
2023-03-08T23:50:40.242Z,6.40
2023-03-08T23:53:07.116Z,10.40
2023-03-08T23:55:40.071Z,15.80
2023-03-08T23:58:07.301Z,12.30
